createdAt,value
2022-08-25T00:02:04.721Z,75.57
2022-08-25T00:04:35.229Z,75.17
2022-08-25T00:07:07.156Z,74.98
2022-08-25T00:09:35.709Z,75.17
2022-08-25T00:12:05.883Z,74.98
2022-08-25T00:14:36.970Z,74.82
2022-08-25T00:17:06.836Z,74.98
2022-08-25T00:19:38.475Z,74.91
2022-08-25T00:22:07.860Z,74.77
2022-08-25T00:24:36.189Z,74.94
2022-08-25T00:27:04.603Z,74.80
2022-08-25T00:29:33.333Z,74.86
2022-08-25T00:32:03.563Z,74.92
2022-08-25T00:34:39.506Z,75.04
2022-08-25T00:37:09.649Z,75.26
2022-08-25T00:39:40.095Z,75.40
2022-08-25T00:42:11.794Z,75.40
2022-08-25T00:44:45.118Z,75.32
2022-08-25T00:47:13.373Z,75.47
2022-08-25T00:49:55.358Z,75.51
2022-08-25T00:52:23.518Z,75.84
2022-08-25T00:55:03.140Z,76.04
2022-08-25T00:57:41.472Z,75.80
2022-08-25T01:00:26.241Z,76.02
2022-08-25T01:02:57.567Z,76.10
2022-08-25T01:05:27.086Z,76.08
2022-08-25T01:07:58.722Z,75.98
2022-08-25T01:10:29.127Z,75.93
2022-08-25T01:13:02.767Z,75.93
2022-08-25T01:15:32.730Z,75.94
2022-08-25T01:18:01.149Z,76.00
2022-08-25T01:20:32.636Z,75.94
2022-08-25T01:23:03.006Z,75.65
2022-08-25T01:25:49.921Z,75.50
2022-08-25T01:28:18.723Z,75.34
2022-08-25T01:30:46.986Z,75.27
2022-08-25T01:33:18.361Z,75.16
2022-08-25T01:35:47.260Z,75.90
2022-08-25T01:38:17.875Z,75.95
2022-08-25T01:40:45.953Z,76.05
2022-08-25T01:43:18.451Z,76.38
2022-08-25T01:45:48.216Z,76.17
2022-08-25T01:48:17.127Z,76.39
2022-08-25T01:50:45.312Z,76.19
2022-08-25T01:53:29.561Z,75.73
2022-08-25T01:56:15.764Z,75.97
2022-08-25T01:58:46.988Z,75.87
2022-08-25T02:01:18.963Z,75.75
2022-08-25T02:03:53.101Z,75.96
2022-08-25T02:06:28.808Z,75.96
2022-08-25T02:09:04.652Z,76.26
2022-08-25T02:11:37.147Z,76.02
2022-08-25T02:14:05.911Z,76.05
2022-08-25T02:16:37.090Z,75.89
2022-08-25T02:19:09.543Z,75.81
2022-08-25T02:21:38.284Z,75.86
2022-08-25T02:24:07.432Z,75.97
2022-08-25T02:26:37.262Z,75.78
2022-08-25T02:29:07.785Z,75.32
2022-08-25T02:31:39.319Z,75.46
2022-08-25T02:34:08.900Z,75.52
2022-08-25T02:36:38.491Z,75.75
2022-08-25T02:39:08.970Z,76.00
2022-08-25T02:41:38.929Z,75.91
2022-08-25T02:44:08.054Z,76.58
2022-08-25T02:46:39.404Z,76.79
2022-08-25T02:49:08.003Z,76.95
2022-08-25T02:51:36.627Z,77.04
2022-08-25T02:54:05.536Z,76.55
2022-08-25T02:56:33.954Z,76.74
2022-08-25T02:59:02.939Z,76.69
2022-08-25T03:01:32.730Z,76.56
2022-08-25T03:04:01.960Z,76.17
2022-08-25T03:06:30.620Z,76.09
2022-08-25T03:08:59.251Z,76.28
2022-08-25T03:11:28.448Z,76.30
2022-08-25T03:13:56.697Z,76.18
2022-08-25T03:16:28.165Z,76.10
2022-08-25T03:18:56.871Z,76.51
2022-08-25T03:21:26.919Z,76.11
2022-08-25T03:23:56.353Z,76.20
2022-08-25T03:26:43.130Z,76.42
2022-08-25T03:29:11.262Z,76.45
2022-08-25T03:31:39.449Z,76.04
2022-08-25T03:34:07.541Z,76.01
2022-08-25T03:36:35.756Z,76.25
2022-08-25T03:39:04.542Z,76.40
2022-08-25T03:41:33.651Z,76.58
2022-08-25T03:44:04.093Z,76.93
2022-08-25T03:46:35.479Z,76.94
2022-08-25T03:49:04.917Z,77.03
2022-08-25T03:51:37.301Z,77.27
2022-08-25T03:54:05.431Z,77.49
2022-08-25T03:56:34.095Z,77.48
2022-08-25T03:59:02.603Z,77.89
2022-08-25T04:01:30.657Z,78.27
2022-08-25T04:03:58.926Z,78.39
2022-08-25T04:06:27.110Z,78.80
2022-08-25T04:08:58.389Z,78.88
2022-08-25T04:11:27.382Z,79.14
2022-08-25T04:13:59.154Z,79.06
2022-08-25T04:16:31.595Z,79.41
2022-08-25T04:19:02.358Z,79.23
2022-08-25T04:21:32.012Z,79.17
2022-08-25T04:23:59.949Z,79.36
2022-08-25T04:26:34.683Z,79.26
2022-08-25T04:29:07.160Z,79.07
2022-08-25T04:31:39.512Z,78.94
2022-08-25T04:34:24.734Z,78.88
2022-08-25T04:36:56.072Z,79.15
2022-08-25T04:39:24.012Z,78.75
2022-08-25T04:41:52.119Z,78.88
2022-08-25T04:44:21.621Z,79.21
2022-08-25T04:46:50.042Z,79.31
2022-08-25T04:49:18.240Z,79.22
2022-08-25T04:51:47.160Z,79.16
2022-08-25T04:54:21.822Z,78.67
2022-08-25T04:56:54.500Z,78.98
2022-08-25T04:59:29.490Z,78.66
2022-08-25T05:02:04.506Z,78.31
2022-08-25T05:04:36.424Z,78.32
2022-08-25T05:07:04.938Z,78.28
2022-08-25T05:09:33.558Z,78.26
2022-08-25T05:12:10.534Z,78.46
2022-08-25T05:14:54.710Z,78.38
2022-08-25T05:17:23.993Z,78.56
2022-08-25T05:19:52.184Z,78.78
2022-08-25T05:22:20.306Z,78.72
2022-08-25T05:24:48.545Z,78.75
2022-08-25T05:27:17.213Z,78.50
2022-08-25T05:29:45.280Z,78.36
2022-08-25T05:32:13.339Z,78.53
2022-08-25T05:34:41.937Z,78.53
2022-08-25T05:37:12.146Z,78.63
2022-08-25T05:39:40.548Z,78.49
2022-08-25T05:42:08.488Z,78.00
2022-08-25T05:44:38.516Z,78.10
2022-08-25T05:47:07.744Z,77.90
2022-08-25T05:49:35.890Z,77.89
2022-08-25T05:52:04.360Z,78.05
2022-08-25T05:54:33.700Z,77.97
2022-08-25T05:57:01.681Z,78.10
2022-08-25T05:59:30.443Z,77.68
2022-08-25T06:02:17.586Z,77.49
2022-08-25T06:04:46.943Z,77.06
2022-08-25T06:07:14.939Z,77.22
2022-08-25T06:09:46.546Z,77.55
2022-08-25T06:12:15.151Z,77.78
2022-08-25T06:14:44.590Z,77.93
2022-08-25T06:17:14.645Z,77.57
2022-08-25T06:19:46.238Z,77.01
2022-08-25T06:22:14.253Z,76.48
2022-08-25T06:24:42.813Z,76.93
2022-08-25T06:27:13.322Z,77.09
2022-08-25T06:29:42.297Z,76.84
2022-08-25T06:32:10.605Z,76.56
2022-08-25T06:34:41.749Z,76.28
2022-08-25T06:37:09.811Z,76.41
2022-08-25T06:39:37.975Z,76.97
2022-08-25T06:42:06.196Z,76.93
2022-08-25T06:44:35.147Z,76.86
2022-08-25T06:47:03.260Z,76.52
2022-08-25T06:49:36.002Z,76.33
2022-08-25T06:52:04.789Z,75.93
2022-08-25T06:54:33.264Z,75.59
2022-08-25T06:57:01.741Z,75.37
2022-08-25T06:59:32.207Z,75.01
2022-08-25T07:02:03.299Z,75.06
2022-08-25T07:04:33.148Z,75.46
2022-08-25T07:07:04.860Z,75.43
2022-08-25T07:09:37.411Z,75.70
2022-08-25T07:12:10.001Z,75.88
2022-08-25T07:14:38.600Z,75.85
2022-08-25T07:17:12.619Z,75.99
2022-08-25T07:19:43.058Z,76.00
2022-08-25T07:22:12.044Z,75.61
2022-08-25T07:24:40.094Z,75.69
2022-08-25T07:27:08.185Z,75.78
2022-08-25T07:29:42.343Z,75.76
2022-08-25T07:32:10.983Z,75.91
2022-08-25T07:34:59.209Z,75.84
2022-08-25T07:40:38.373Z,75.90
2022-08-25T07:43:13.170Z,75.69
2022-08-25T07:45:49.550Z,75.53
2022-08-25T07:48:20.097Z,75.58
2022-08-25T07:50:49.505Z,74.84
2022-08-25T07:53:18.086Z,75.17
2022-08-25T07:55:47.377Z,75.32
2022-08-25T07:58:15.757Z,75.40
2022-08-25T08:00:48.058Z,75.54
2022-08-25T08:03:35.158Z,75.45
2022-08-25T08:06:09.691Z,74.89
2022-08-25T08:08:44.110Z,74.63
2022-08-25T08:11:21.493Z,74.25
2022-08-25T08:13:55.014Z,74.10
2022-08-25T08:16:30.386Z,74.41
2022-08-25T08:18:59.651Z,73.90
2022-08-25T08:21:32.648Z,73.62
2022-08-25T08:24:05.038Z,73.40
2022-08-25T08:26:57.686Z,73.08
2022-08-25T08:29:28.230Z,72.83
2022-08-25T08:31:56.860Z,72.07
2022-08-25T08:34:25.189Z,72.12
2022-08-25T08:36:57.824Z,72.09
2022-08-25T08:39:27.684Z,71.97
2022-08-25T08:42:19.926Z,72.24
2022-08-25T08:45:46.407Z,72.53
2022-08-25T08:49:19.688Z,72.59
2022-08-25T08:52:09.398Z,72.28
2022-08-25T08:54:41.159Z,72.14
2022-08-25T09:03:09.348Z,71.17
2022-08-25T09:05:50.420Z,71.20
2022-08-25T09:08:20.498Z,70.80
2022-08-25T09:11:01.575Z,70.94
2022-08-25T09:13:36.938Z,70.88
2022-08-25T09:16:34.945Z,70.75
2022-08-25T09:19:23.383Z,70.15
2022-08-25T09:22:33.668Z,68.96
2022-08-25T09:25:53.041Z,68.50
2022-08-25T09:28:39.810Z,68.74
2022-08-25T09:31:29.849Z,68.25
2022-08-25T09:34:01.108Z,67.54
2022-08-25T09:36:35.562Z,66.42
2022-08-25T09:39:06.841Z,64.46
2022-08-25T09:41:51.133Z,65.01
2022-08-25T09:44:26.229Z,63.94
2022-08-25T09:47:17.930Z,62.74
2022-08-25T09:50:00.259Z,61.82
2022-08-25T09:52:28.796Z,60.75
2022-08-25T09:54:59.723Z,59.92
2022-08-25T09:57:44.439Z,59.21
2022-08-25T10:00:21.558Z,58.00
2022-08-25T10:03:07.870Z,56.24
2022-08-25T10:05:41.470Z,55.55
2022-08-25T10:08:24.813Z,55.05
2022-08-25T10:10:57.574Z,54.83
2022-08-25T10:13:36.682Z,53.98
2022-08-25T10:16:34.574Z,54.05
2022-08-25T10:19:28.699Z,54.08
2022-08-25T10:22:10.902Z,53.87
2022-08-25T10:24:43.890Z,53.97
2022-08-25T10:27:30.677Z,54.03
2022-08-25T10:30:20.258Z,53.77
2022-08-25T10:33:33.118Z,52.56
2022-08-25T10:36:10.700Z,52.37
2022-08-25T10:38:58.822Z,52.29
2022-08-25T10:41:38.227Z,51.06
2022-08-25T10:44:36.866Z,51.32
2022-08-25T10:47:23.360Z,49.83
2022-08-25T10:49:56.240Z,50.51
2022-08-25T10:52:48.834Z,50.59
2022-08-25T10:55:20.859Z,50.08
2022-08-25T10:57:52.645Z,50.17
2022-08-25T11:00:23.651Z,50.97
2022-08-25T11:03:08.435Z,50.43
2022-08-25T11:06:05.747Z,50.41
2022-08-25T11:08:58.700Z,49.71
2022-08-25T11:12:00.021Z,49.85
2022-08-25T11:14:34.409Z,49.57
2022-08-25T11:17:10.240Z,49.79
2022-08-25T11:19:42.169Z,50.26
2022-08-25T11:22:22.477Z,50.82
2022-08-25T11:24:59.763Z,51.43
2022-08-25T11:27:59.921Z,51.11
2022-08-25T11:30:28.989Z,50.69
2022-08-25T11:32:57.135Z,50.14
2022-08-25T11:35:40.899Z,50.05
2022-08-25T11:38:37.850Z,48.72
2022-08-25T11:41:21.717Z,49.43
2022-08-25T11:44:10.336Z,49.41
2022-08-25T11:46:53.367Z,49.61
2022-08-25T11:49:53.947Z,50.27
2022-08-25T11:52:34.693Z,49.87
2022-08-25T11:55:13.956Z,49.83
2022-08-25T11:57:45.122Z,50.73
2022-08-25T12:04:47.139Z,51.42
2022-08-25T12:07:20.499Z,51.38
2022-08-25T12:10:09.171Z,51.55
2022-08-25T12:12:38.825Z,51.27
2022-08-25T12:15:21.166Z,51.44
2022-08-25T12:18:16.759Z,50.88
2022-08-25T12:20:52.723Z,49.98
2022-08-25T12:23:30.359Z,50.08
2022-08-25T12:26:06.453Z,49.87
2022-08-25T12:28:41.950Z,49.31
2022-08-25T12:31:30.472Z,49.16
2022-08-25T12:34:19.091Z,48.57
2022-08-25T12:36:56.318Z,48.06
2022-08-25T12:39:32.065Z,47.91
2022-08-25T12:42:06.767Z,47.55
2022-08-25T12:44:44.110Z,47.49
2022-08-25T12:47:27.318Z,47.69
2022-08-25T12:50:33.625Z,47.30
2022-08-25T12:53:16.082Z,46.21
2022-08-25T12:55:50.178Z,46.41
2022-08-25T12:58:18.212Z,46.67
2022-08-25T13:01:35.498Z,47.12
2022-08-25T13:04:19.727Z,47.28
2022-08-25T13:06:59.933Z,47.01
2022-08-25T13:09:50.810Z,45.95
2022-08-25T13:12:24.458Z,45.52
2022-08-25T13:14:54.775Z,43.66
2022-08-25T13:17:34.004Z,43.90
2022-08-25T13:20:23.542Z,43.63
2022-08-25T13:22:57.389Z,43.67
2022-08-25T13:25:37.072Z,44.04
2022-08-25T13:28:10.949Z,44.91
2022-08-25T13:30:40.042Z,45.13
2022-08-25T13:33:23.984Z,45.20
2022-08-25T13:36:14.313Z,45.36
2022-08-25T13:38:45.703Z,45.53
2022-08-25T13:41:23.693Z,45.08
2022-08-25T13:44:00.861Z,44.45
2022-08-25T13:46:30.789Z,43.79
2022-08-25T13:49:05.333Z,43.27
2022-08-25T13:51:34.971Z,42.97
2022-08-25T13:54:07.159Z,43.38
2022-08-25T13:56:40.947Z,43.48
2022-08-25T13:59:25.814Z,43.84
2022-08-25T14:01:55.342Z,44.20
2022-08-25T14:04:51.094Z,44.26
2022-08-25T14:07:25.553Z,42.17
2022-08-25T14:10:01.634Z,41.71
2022-08-25T14:12:47.743Z,40.27
2022-08-25T14:15:17.466Z,40.02
2022-08-25T14:18:00.640Z,39.11
2022-08-25T14:20:31.020Z,38.32
2022-08-25T14:23:12.929Z,37.03
2022-08-25T14:25:49.042Z,37.05
2022-08-25T14:28:21.769Z,37.37
2022-08-25T14:30:53.931Z,36.54
2022-08-25T14:33:25.332Z,36.55
2022-08-25T14:35:55.242Z,37.01
2022-08-25T14:38:23.360Z,37.42
2022-08-25T14:40:52.483Z,36.97
2022-08-25T14:43:24.006Z,37.08
2022-08-25T14:46:02.603Z,37.94
2022-08-25T14:48:37.238Z,38.70
2022-08-25T14:51:05.571Z,38.67
2022-08-25T14:53:33.967Z,38.99
2022-08-25T14:56:08.630Z,38.34
2022-08-25T14:58:48.541Z,36.51
2022-08-25T15:01:29.018Z,35.36
2022-08-25T15:04:05.776Z,34.70
2022-08-25T15:06:36.620Z,35.99
2022-08-25T15:09:11.739Z,37.04
2022-08-25T15:11:45.434Z,37.53
2022-08-25T15:14:18.958Z,36.71
2022-08-25T15:16:57.898Z,35.78
2022-08-25T15:19:27.079Z,34.79
2022-08-25T15:21:57.779Z,33.42
2022-08-25T15:24:28.324Z,33.22
2022-08-25T15:26:58.747Z,33.11
2022-08-25T15:29:30.288Z,32.30
2022-08-25T15:32:00.419Z,31.71
2022-08-25T15:34:29.695Z,31.55
2022-08-25T15:36:58.957Z,30.51
2022-08-25T15:39:27.910Z,30.71
2022-08-25T15:41:57.136Z,30.28
2022-08-25T15:44:29.524Z,29.72
2022-08-25T15:46:59.228Z,29.73
2022-08-25T15:49:29.936Z,29.13
2022-08-25T15:52:00.008Z,28.96
2022-08-25T15:54:29.024Z,29.31
2022-08-25T15:56:59.916Z,29.28
2022-08-25T15:59:28.727Z,29.18
2022-08-25T16:01:57.432Z,28.26
2022-08-25T16:04:27.589Z,28.52
2022-08-25T16:06:56.109Z,28.91
2022-08-25T16:09:24.351Z,28.64
2022-08-25T16:11:55.626Z,28.75
2022-08-25T16:14:27.722Z,28.65
2022-08-25T16:16:58.103Z,28.82
2022-08-25T16:19:30.054Z,28.84
2022-08-25T16:21:59.235Z,28.72
2022-08-25T16:24:28.394Z,28.71
2022-08-25T16:27:11.383Z,28.90
2022-08-25T16:29:42.964Z,28.82
2022-08-25T16:32:13.374Z,28.94
2022-08-25T16:34:42.014Z,29.53
2022-08-25T16:37:11.084Z,29.88
2022-08-25T16:39:44.090Z,30.10
2022-08-25T16:42:12.894Z,30.43
2022-08-25T16:44:41.850Z,30.80
2022-08-25T16:47:09.892Z,31.15
2022-08-25T16:49:43.009Z,31.71
2022-08-25T16:52:30.243Z,32.45
2022-08-25T16:55:14.407Z,33.07
2022-08-25T16:57:48.787Z,33.69
2022-08-25T17:00:21.932Z,34.09
2022-08-25T17:02:54.289Z,34.77
2022-08-25T17:05:22.222Z,35.61
2022-08-25T17:08:09.366Z,36.72
2022-08-25T17:10:41.407Z,38.13
2022-08-25T17:13:11.809Z,38.73
2022-08-25T17:15:47.005Z,39.82
2022-08-25T17:18:15.540Z,40.72
2022-08-25T17:20:45.299Z,41.76
2022-08-25T17:23:13.372Z,43.05
2022-08-25T17:25:42.953Z,44.12
2022-08-25T17:28:12.808Z,45.11
2022-08-25T17:30:41.668Z,46.11
2022-08-25T17:33:09.628Z,46.91
2022-08-25T17:35:42.316Z,47.66
2022-08-25T17:38:11.202Z,48.58
2022-08-25T17:40:39.811Z,49.56
2022-08-25T17:43:09.125Z,50.62
2022-08-25T17:45:39.300Z,51.26
2022-08-25T17:48:09.189Z,52.44
2022-08-25T17:50:39.374Z,52.94
2022-08-25T17:53:13.543Z,53.81
2022-08-25T17:55:48.710Z,54.49
2022-08-25T17:58:18.886Z,55.22
2022-08-25T18:00:49.544Z,55.84
2022-08-25T18:03:27.240Z,56.55
2022-08-25T18:05:58.773Z,57.20
2022-08-25T18:08:32.248Z,57.89
2022-08-25T18:11:05.050Z,58.32
2022-08-25T18:13:33.265Z,58.96
2022-08-25T18:16:01.254Z,59.51
2022-08-25T18:18:31.819Z,59.87
2022-08-25T18:20:59.812Z,60.44
2022-08-25T18:23:27.996Z,60.85
2022-08-25T18:26:01.074Z,61.36
2022-08-25T18:28:30.179Z,61.69
2022-08-25T18:30:58.138Z,61.99
2022-08-25T18:33:26.361Z,62.38
2022-08-25T18:35:58.262Z,62.91
2022-08-25T18:38:52.645Z,63.19
2022-08-25T18:41:27.770Z,63.45
2022-08-25T18:43:57.978Z,64.00
2022-08-25T18:46:25.990Z,64.49
2022-08-25T18:48:55.769Z,64.35
2022-08-25T18:51:24.857Z,64.26
2022-08-25T18:53:54.572Z,64.85
2022-08-25T18:56:27.394Z,64.98
2022-08-25T18:58:55.791Z,64.90
2022-08-25T19:01:23.965Z,65.42
2022-08-25T19:03:52.367Z,65.64
2022-08-25T19:06:20.974Z,65.80
2022-08-25T19:08:49.152Z,66.17
2022-08-25T19:11:22.241Z,66.37
2022-08-25T19:13:52.035Z,66.33
2022-08-25T19:16:40.894Z,66.33
2022-08-25T19:19:14.919Z,66.39
2022-08-25T19:21:43.464Z,66.39
2022-08-25T19:24:13.523Z,66.58
2022-08-25T19:26:42.962Z,66.61
2022-08-25T19:29:17.570Z,66.59
2022-08-25T19:31:49.157Z,66.61
2022-08-25T19:34:25.372Z,66.59
2022-08-25T19:36:58.074Z,66.44
2022-08-25T19:39:27.430Z,66.55
2022-08-25T19:41:56.898Z,66.71
2022-08-25T19:44:27.129Z,66.55
2022-08-25T19:46:58.305Z,66.73
2022-08-25T19:49:31.484Z,66.61
2022-08-25T19:52:06.958Z,66.70
2022-08-25T19:54:45.767Z,66.71
2022-08-25T19:57:28.148Z,66.76
2022-08-25T20:00:17.781Z,67.01
2022-08-25T20:02:46.537Z,67.00
2022-08-25T20:05:15.820Z,67.26
2022-08-25T20:07:52.670Z,67.43
2022-08-25T20:10:22.105Z,67.46
2022-08-25T20:12:50.070Z,67.66
2022-08-25T20:15:18.580Z,67.77
2022-08-25T20:17:46.635Z,67.79
2022-08-25T20:20:19.011Z,67.91
2022-08-25T20:22:48.409Z,68.07
2022-08-25T20:25:26.634Z,68.17
2022-08-25T20:28:04.340Z,68.29
2022-08-25T20:30:32.703Z,68.42
2022-08-25T20:33:01.251Z,68.44
2022-08-25T20:35:29.407Z,68.62
2022-08-25T20:37:58.533Z,68.90
2022-08-25T20:40:28.130Z,68.85
2022-08-25T20:43:01.969Z,69.01
2022-08-25T20:45:31.146Z,69.14
2022-08-25T20:48:00.256Z,69.42
2022-08-25T20:50:28.275Z,69.83
2022-08-25T20:52:58.683Z,70.01
2022-08-25T20:55:27.982Z,70.00
2022-08-25T20:57:56.592Z,70.16
2022-08-25T21:00:25.927Z,70.09
2022-08-25T21:02:55.071Z,70.40
2022-08-25T21:05:23.181Z,70.77
2022-08-25T21:07:51.238Z,70.63
2022-08-25T21:10:19.225Z,70.64
2022-08-25T21:12:49.091Z,70.95
2022-08-25T21:15:21.299Z,70.78
2022-08-25T21:17:50.959Z,70.84
2022-08-25T21:20:18.909Z,70.83
2022-08-25T21:22:46.972Z,70.93
2022-08-25T21:25:15.143Z,70.86
2022-08-25T21:27:43.882Z,70.85
2022-08-25T21:30:12.800Z,70.90
2022-08-25T21:32:40.705Z,70.78
2022-08-25T21:35:23.214Z,70.89
2022-08-25T21:37:53.537Z,71.04
2022-08-25T21:40:22.871Z,71.04
2022-08-25T21:42:51.907Z,71.44
2022-08-25T21:45:21.691Z,71.35
2022-08-25T21:47:50.096Z,71.23
2022-08-25T21:50:20.819Z,71.26
2022-08-25T21:52:48.666Z,71.50
2022-08-25T21:55:23.517Z,71.49
2022-08-25T21:57:51.543Z,71.75
2022-08-25T22:00:21.372Z,71.87
2022-08-25T22:02:50.968Z,71.88
2022-08-25T22:05:18.909Z,71.83
2022-08-25T22:07:46.794Z,71.79
2022-08-25T22:10:17.975Z,71.91
2022-08-25T22:12:47.304Z,71.69
2022-08-25T22:15:18.917Z,71.62
2022-08-25T22:17:48.077Z,71.82
2022-08-25T22:20:18.209Z,72.05
2022-08-25T22:22:46.299Z,72.20
2022-08-25T22:25:14.435Z,72.12
2022-08-25T22:27:42.891Z,72.09
2022-08-25T22:30:11.840Z,72.26
2022-08-25T22:32:39.744Z,72.36
2022-08-25T22:35:08.991Z,72.20
2022-08-25T22:37:38.190Z,72.11
2022-08-25T22:40:08.594Z,72.32
2022-08-25T22:42:36.563Z,72.23
2022-08-25T22:45:04.819Z,72.21
2022-08-25T22:47:32.769Z,72.53
2022-08-25T22:50:00.954Z,72.79
2022-08-25T22:52:33.630Z,72.82
2022-08-25T22:55:03.252Z,73.05
2022-08-25T22:57:31.577Z,73.24
2022-08-25T22:59:59.496Z,73.36
2022-08-25T23:02:30.279Z,73.43
2022-08-25T23:04:58.484Z,73.18
2022-08-25T23:07:29.523Z,73.32
2022-08-25T23:10:03.300Z,73.19
2022-08-25T23:12:32.062Z,72.89
2022-08-25T23:15:00.690Z,73.04
2022-08-25T23:17:31.596Z,73.01
2022-08-25T23:19:59.520Z,73.08
2022-08-25T23:22:27.468Z,73.04
2022-08-25T23:24:56.391Z,73.34
2022-08-25T23:27:25.018Z,73.41
2022-08-25T23:29:52.971Z,73.41
2022-08-25T23:32:20.841Z,73.34
2022-08-25T23:34:48.879Z,73.22
2022-08-25T23:37:18.720Z,73.38
2022-08-25T23:39:49.364Z,73.47
2022-08-25T23:42:19.943Z,73.44
2022-08-25T23:44:48.953Z,73.28
2022-08-25T23:47:18.229Z,73.37
2022-08-25T23:49:48.048Z,73.49
2022-08-25T23:52:17.723Z,73.29
2022-08-25T23:54:46.211Z,73.03
2022-08-25T23:57:15.121Z,73.15
2022-08-25T23:59:43.854Z,73.45
